createdAt,value
2022-12-22T00:00:20.219Z,7.43
2022-12-22T00:01:20.228Z,7.43
2022-12-22T00:02:20.410Z,7.47
2022-12-22T00:03:20.423Z,7.45
2022-12-22T00:04:20.249Z,7.45
2022-12-22T00:05:20.167Z,7.45
2022-12-22T00:06:20.236Z,7.45
2022-12-22T00:07:20.192Z,7.48
2022-12-22T00:08:20.152Z,7.48
2022-12-22T00:09:20.117Z,7.48
2022-12-22T00:10:20.065Z,7.51
2022-12-22T00:11:20.152Z,7.51
2022-12-22T00:12:20.045Z,7.51
2022-12-22T00:13:20.073Z,7.53
2022-12-22T00:14:19.993Z,7.51
2022-12-22T00:15:20.041Z,7.54
2022-12-22T00:16:20.132Z,7.57
2022-12-22T00:17:20.073Z,7.58
2022-12-22T00:18:20.001Z,7.60
2022-12-22T00:19:19.950Z,7.60
2022-12-22T00:20:19.937Z,7.61
2022-12-22T00:21:19.950Z,7.61
2022-12-22T00:22:19.931Z,7.63
2022-12-22T00:23:19.935Z,7.63
2022-12-22T00:24:19.897Z,7.79
2022-12-22T00:25:19.909Z,7.97
2022-12-22T00:26:19.906Z,8.06
2022-12-22T00:27:19.895Z,8.12
2022-12-22T00:28:19.858Z,8.15
2022-12-22T00:29:19.876Z,8.18
2022-12-22T00:30:19.837Z,8.18
2022-12-22T00:31:19.958Z,8.16
2022-12-22T00:32:19.829Z,8.16
2022-12-22T00:33:19.813Z,8.15
2022-12-22T00:34:19.740Z,8.10
2022-12-22T00:35:19.800Z,8.09
2022-12-22T00:36:19.712Z,8.06
2022-12-22T00:37:19.767Z,8.05
2022-12-22T00:38:19.689Z,8.03
2022-12-22T00:39:19.691Z,8.01
2022-12-22T00:40:19.702Z,8.00
2022-12-22T00:41:19.717Z,7.98
2022-12-22T00:42:19.686Z,7.94
2022-12-22T00:43:19.702Z,7.94
2022-12-22T00:44:19.608Z,7.93
2022-12-22T00:45:19.634Z,7.90
2022-12-22T00:46:19.961Z,7.87
2022-12-22T00:47:19.616Z,7.83
2022-12-22T00:48:19.555Z,7.80
2022-12-22T00:49:19.572Z,7.80
2022-12-22T00:50:19.541Z,7.80
2022-12-22T00:51:19.563Z,7.82
2022-12-22T00:52:19.534Z,7.85
2022-12-22T00:53:19.559Z,7.87
2022-12-22T00:54:19.495Z,7.93
2022-12-22T00:55:19.509Z,8.05
2022-12-22T00:56:19.460Z,8.10
2022-12-22T00:57:19.484Z,8.13
2022-12-22T00:58:19.443Z,8.18
2022-12-22T00:59:19.460Z,8.19
2022-12-22T01:00:19.400Z,8.28
2022-12-22T01:01:19.503Z,8.31
2022-12-22T01:02:19.602Z,8.37
2022-12-22T01:03:19.422Z,8.42
2022-12-22T01:04:19.370Z,8.49
2022-12-22T01:05:19.393Z,8.55
2022-12-22T01:06:19.348Z,8.56
2022-12-22T01:07:19.342Z,8.56
2022-12-22T01:08:19.296Z,8.58
2022-12-22T01:09:19.305Z,8.56
2022-12-22T01:10:19.272Z,8.60
2022-12-22T01:11:19.316Z,8.61
2022-12-22T01:12:19.284Z,8.63
2022-12-22T01:13:19.287Z,8.66
2022-12-22T01:14:19.224Z,8.74
2022-12-22T01:15:19.246Z,8.79
2022-12-22T01:16:19.342Z,8.82
2022-12-22T01:17:19.230Z,8.85
2022-12-22T01:18:19.184Z,8.85
2022-12-22T01:19:19.404Z,8.85
2022-12-22T01:20:19.150Z,8.87
2022-12-22T01:21:19.185Z,8.88
2022-12-22T01:22:19.123Z,8.89
2022-12-22T01:23:19.140Z,8.89
2022-12-22T01:24:19.102Z,8.89
2022-12-22T01:25:19.158Z,8.88
2022-12-22T01:26:19.067Z,8.87
2022-12-22T01:27:19.097Z,8.85
2022-12-22T01:28:19.076Z,8.84
2022-12-22T01:29:19.083Z,8.81
2022-12-22T01:30:19.022Z,8.81
2022-12-22T01:31:19.090Z,8.81
2022-12-22T01:32:18.991Z,8.79
2022-12-22T01:33:18.996Z,8.74
2022-12-22T01:34:18.977Z,8.76
2022-12-22T01:35:18.996Z,8.73
2022-12-22T01:36:18.970Z,8.73
2022-12-22T01:37:18.951Z,8.74
2022-12-22T01:38:18.922Z,8.74
2022-12-22T01:39:18.930Z,8.73
2022-12-22T01:40:18.889Z,8.73
2022-12-22T01:41:18.890Z,8.71
2022-12-22T01:42:18.882Z,8.71
2022-12-22T01:43:18.888Z,8.71
2022-12-22T01:44:18.861Z,8.69
2022-12-22T01:45:18.838Z,8.71
2022-12-22T01:46:18.928Z,8.71
2022-12-22T01:47:18.818Z,8.71
2022-12-22T01:48:18.775Z,8.73
2022-12-22T01:49:18.794Z,8.74
2022-12-22T01:50:18.783Z,8.74
2022-12-22T01:51:18.771Z,8.76
2022-12-22T01:52:18.736Z,8.74
2022-12-22T01:53:20.127Z,8.74
2022-12-22T01:54:18.709Z,8.74
2022-12-22T01:55:18.761Z,8.76
2022-12-22T01:56:18.690Z,8.78
2022-12-22T01:57:18.704Z,8.84
2022-12-22T01:58:18.674Z,8.87
2022-12-22T01:59:18.779Z,8.88
2022-12-22T02:00:18.642Z,8.89
2022-12-22T02:01:18.714Z,8.89
2022-12-22T02:02:18.671Z,8.89
2022-12-22T02:03:18.703Z,8.91
2022-12-22T02:04:18.593Z,8.92
2022-12-22T02:05:18.681Z,8.95
2022-12-22T02:06:18.595Z,8.94
2022-12-22T02:07:18.568Z,8.97
2022-12-22T02:08:18.528Z,8.95
2022-12-22T02:09:18.526Z,8.97
2022-12-22T02:10:18.522Z,8.99
2022-12-22T02:11:18.513Z,9.00
2022-12-22T02:12:18.514Z,9.00
2022-12-22T02:13:18.484Z,9.02
2022-12-22T02:14:18.447Z,9.03
2022-12-22T02:15:18.466Z,9.02
2022-12-22T02:16:18.476Z,9.00
2022-12-22T02:17:18.470Z,9.02
2022-12-22T02:18:18.424Z,9.00
2022-12-22T02:19:18.413Z,8.99
2022-12-22T02:20:18.365Z,8.99
2022-12-22T02:21:18.392Z,8.99
2022-12-22T02:22:18.375Z,8.97
2022-12-22T02:23:18.388Z,8.95
2022-12-22T02:24:18.354Z,8.95
2022-12-22T02:25:18.326Z,8.97
2022-12-22T02:26:18.288Z,8.99
2022-12-22T02:27:18.330Z,8.99
2022-12-22T02:28:18.276Z,8.97
2022-12-22T02:29:18.308Z,8.97
2022-12-22T02:30:18.243Z,8.97
2022-12-22T02:31:18.368Z,8.94
2022-12-22T02:32:18.224Z,8.95
2022-12-22T02:33:18.216Z,8.99
2022-12-22T02:34:18.219Z,8.95
2022-12-22T02:35:18.213Z,8.95
2022-12-22T02:36:18.154Z,8.97
2022-12-22T02:37:18.160Z,8.95
2022-12-22T02:38:18.132Z,8.97
2022-12-22T02:39:18.144Z,9.00
2022-12-22T02:40:18.157Z,9.02
2022-12-22T02:41:18.119Z,9.03
2022-12-22T02:42:18.079Z,9.04
2022-12-22T02:43:18.080Z,9.04
2022-12-22T02:44:18.057Z,9.04
2022-12-22T02:45:18.087Z,9.08
2022-12-22T02:46:18.083Z,9.08
2022-12-22T02:47:18.050Z,9.10
2022-12-22T02:48:18.005Z,9.11
2022-12-22T02:49:18.005Z,9.10
2022-12-22T02:50:18.013Z,9.08
2022-12-22T02:51:18.010Z,9.10
2022-12-22T02:52:17.982Z,9.13
2022-12-22T02:53:17.983Z,9.13
2022-12-22T02:54:17.926Z,9.11
2022-12-22T02:55:17.970Z,9.13
2022-12-22T02:56:17.910Z,9.11
2022-12-22T02:57:17.915Z,9.14
2022-12-22T02:58:17.900Z,9.13
2022-12-22T02:59:24.976Z,9.13
2022-12-22T03:00:18.834Z,9.16
2022-12-22T03:01:17.968Z,9.14
2022-12-22T03:02:18.012Z,9.14
2022-12-22T03:03:18.031Z,9.16
2022-12-22T03:04:17.812Z,9.19
2022-12-22T03:05:17.805Z,9.21
2022-12-22T03:06:17.768Z,9.23
2022-12-22T03:07:17.781Z,9.23
2022-12-22T03:08:17.761Z,9.23
2022-12-22T03:09:17.851Z,9.23
2022-12-22T03:10:17.728Z,9.25
2022-12-22T03:11:17.722Z,9.26
2022-12-22T03:12:17.695Z,9.26
2022-12-22T03:13:17.709Z,9.25
2022-12-22T03:14:17.667Z,9.29
2022-12-22T03:15:17.697Z,9.29
2022-12-22T03:16:17.687Z,9.32
2022-12-22T03:17:17.688Z,9.34
2022-12-22T03:18:17.616Z,9.39
2022-12-22T03:19:17.713Z,9.39
2022-12-22T03:20:17.642Z,9.40
2022-12-22T03:21:18.354Z,9.40
2022-12-22T03:22:17.618Z,9.39
2022-12-22T03:23:17.563Z,9.36
2022-12-22T03:24:18.488Z,9.34
2022-12-22T03:25:17.580Z,9.32
2022-12-22T03:26:17.503Z,9.32
2022-12-22T03:27:17.526Z,9.32
2022-12-22T03:28:17.502Z,9.29
2022-12-22T03:29:18.464Z,9.29
2022-12-22T03:30:17.760Z,9.29
2022-12-22T03:31:17.496Z,9.28
2022-12-22T03:32:17.537Z,9.28
2022-12-22T03:33:17.460Z,9.23
2022-12-22T03:34:17.463Z,9.23
2022-12-22T03:35:17.459Z,9.22
2022-12-22T03:36:18.357Z,9.19
2022-12-22T03:37:17.367Z,9.18
2022-12-22T03:38:17.377Z,9.13
2022-12-22T03:39:17.380Z,9.10
2022-12-22T03:40:17.475Z,9.10
2022-12-22T03:41:17.335Z,9.06
2022-12-22T03:42:17.354Z,9.03
2022-12-22T03:43:17.294Z,9.02
2022-12-22T03:44:17.452Z,9.00
2022-12-22T03:45:17.311Z,8.97
2022-12-22T03:46:17.429Z,9.00
2022-12-22T03:47:17.396Z,8.97
2022-12-22T03:48:17.280Z,8.97
2022-12-22T03:49:18.450Z,8.95
2022-12-22T03:50:17.579Z,8.97
2022-12-22T03:51:17.180Z,8.97
2022-12-22T03:52:17.224Z,9.02
2022-12-22T03:53:17.301Z,8.99
2022-12-22T03:54:17.193Z,8.97
2022-12-22T03:55:17.144Z,8.99
2022-12-22T03:56:17.179Z,9.00
2022-12-22T03:57:17.108Z,9.02
2022-12-22T03:58:17.207Z,9.03
2022-12-22T03:59:17.099Z,9.04
2022-12-22T04:00:17.094Z,9.04
2022-12-22T04:01:17.233Z,9.04
2022-12-22T04:02:17.945Z,9.06
2022-12-22T04:03:17.083Z,9.08
2022-12-22T04:04:17.119Z,9.10
2022-12-22T04:05:17.066Z,9.08
2022-12-22T04:06:17.013Z,9.08
2022-12-22T04:07:16.986Z,9.14
2022-12-22T04:08:16.996Z,9.13
2022-12-22T04:09:17.698Z,9.14
2022-12-22T04:10:16.980Z,9.14
2022-12-22T04:11:17.666Z,9.16
2022-12-22T04:12:17.103Z,9.14
2022-12-22T04:13:16.926Z,9.14
2022-12-22T04:14:16.980Z,9.14
2022-12-22T04:15:16.889Z,9.13
2022-12-22T04:16:17.664Z,9.11
2022-12-22T04:17:16.852Z,9.06
2022-12-22T04:18:16.858Z,9.02
2022-12-22T04:19:16.833Z,8.99
2022-12-22T04:20:16.843Z,8.95
2022-12-22T04:21:16.795Z,8.91
2022-12-22T04:22:16.835Z,8.89
2022-12-22T04:23:17.544Z,8.89
2022-12-22T04:24:16.801Z,8.91
2022-12-22T04:25:16.805Z,8.91
2022-12-22T04:26:16.752Z,8.92
2022-12-22T04:27:16.737Z,8.97
2022-12-22T04:28:16.823Z,8.94
2022-12-22T04:29:16.743Z,8.94
2022-12-22T04:30:16.846Z,8.94
2022-12-22T04:31:16.680Z,8.94
2022-12-22T04:32:16.770Z,8.94
2022-12-22T04:33:17.523Z,8.94
2022-12-22T04:34:16.647Z,8.94
2022-12-22T04:35:16.620Z,8.92
2022-12-22T04:36:16.656Z,8.97
2022-12-22T04:37:17.810Z,8.99
2022-12-22T04:38:17.806Z,9.03
2022-12-22T04:39:16.595Z,9.11
2022-12-22T04:40:16.585Z,9.14
2022-12-22T04:41:16.547Z,9.18
2022-12-22T04:42:16.563Z,9.19
2022-12-22T04:43:16.534Z,9.21
2022-12-22T04:44:16.536Z,9.18
2022-12-22T04:45:16.501Z,9.19
2022-12-22T04:46:16.621Z,9.19
2022-12-22T04:47:16.471Z,9.19
2022-12-22T04:48:16.738Z,9.25
2022-12-22T04:49:16.472Z,9.25
2022-12-22T04:50:16.446Z,9.25
2022-12-22T04:51:16.427Z,9.26
2022-12-22T04:52:16.426Z,9.28
2022-12-22T04:53:16.381Z,9.28
2022-12-22T04:54:16.398Z,9.29
2022-12-22T04:55:16.379Z,9.29
2022-12-22T04:56:16.376Z,9.29
2022-12-22T04:57:16.340Z,9.28
2022-12-22T04:58:16.377Z,9.34
2022-12-22T04:59:16.340Z,9.36
2022-12-22T05:00:16.329Z,9.36
2022-12-22T05:01:16.380Z,9.36
2022-12-22T05:02:16.367Z,9.34
2022-12-22T05:03:16.326Z,9.34
2022-12-22T05:04:20.335Z,9.31
2022-12-22T05:05:17.365Z,9.31
2022-12-22T05:06:16.271Z,9.26
2022-12-22T05:07:16.514Z,9.25
2022-12-22T05:08:16.226Z,9.23
2022-12-22T05:09:16.202Z,9.21
2022-12-22T05:10:16.235Z,9.21
2022-12-22T05:11:16.153Z,9.22
2022-12-22T05:12:16.880Z,9.22
2022-12-22T05:13:17.071Z,9.22
2022-12-22T05:14:16.151Z,9.19
2022-12-22T05:15:16.131Z,9.21
2022-12-22T05:16:16.133Z,9.18
2022-12-22T05:17:16.075Z,9.18
2022-12-22T05:18:16.112Z,9.18
2022-12-22T05:19:16.060Z,9.18
2022-12-22T05:20:16.061Z,9.18
2022-12-22T05:21:16.025Z,9.18
2022-12-22T05:22:16.063Z,9.19
2022-12-22T05:23:16.001Z,9.19
2022-12-22T05:24:16.095Z,9.22
2022-12-22T05:25:15.994Z,9.23
2022-12-22T05:26:15.982Z,9.23
2022-12-22T05:27:15.960Z,9.23
2022-12-22T05:28:15.953Z,9.23
2022-12-22T05:29:16.031Z,9.23
2022-12-22T05:30:15.957Z,9.23
2022-12-22T05:31:15.962Z,9.25
2022-12-22T05:32:15.902Z,9.25
2022-12-22T05:33:15.872Z,9.25
2022-12-22T05:34:15.906Z,9.28
2022-12-22T05:35:15.929Z,9.28
2022-12-22T05:36:15.874Z,9.28
2022-12-22T05:37:15.816Z,9.29
2022-12-22T05:38:15.867Z,9.28
2022-12-22T05:39:15.791Z,9.26
2022-12-22T05:40:15.832Z,9.25
2022-12-22T05:41:15.768Z,9.25
2022-12-22T05:42:15.774Z,9.23
2022-12-22T05:43:15.744Z,9.25
2022-12-22T05:44:16.065Z,9.26
2022-12-22T05:45:15.722Z,9.31
2022-12-22T05:46:15.855Z,9.37
2022-12-22T05:47:15.747Z,9.37
2022-12-22T05:48:17.145Z,9.43
2022-12-22T05:49:15.696Z,9.44
2022-12-22T05:50:15.687Z,9.44
2022-12-22T05:51:15.663Z,9.46
2022-12-22T05:52:15.683Z,9.47
2022-12-22T05:53:15.643Z,9.47
2022-12-22T05:54:15.644Z,9.47
2022-12-22T05:55:15.590Z,9.47
2022-12-22T05:56:15.618Z,9.47
2022-12-22T05:57:15.568Z,9.46
2022-12-22T05:58:16.258Z,9.46
2022-12-22T05:59:15.546Z,9.44
2022-12-22T06:00:15.545Z,9.43
2022-12-22T06:01:15.504Z,9.44
2022-12-22T06:02:15.787Z,9.43
2022-12-22T06:03:16.410Z,9.43
2022-12-22T06:04:16.535Z,9.41
2022-12-22T06:05:15.466Z,9.41
2022-12-22T06:06:15.482Z,9.43
2022-12-22T06:07:15.473Z,9.41
2022-12-22T06:08:15.451Z,9.41
2022-12-22T06:09:15.417Z,9.41
2022-12-22T06:10:15.430Z,9.40
2022-12-22T06:11:15.380Z,9.39
2022-12-22T06:12:15.414Z,9.34
2022-12-22T06:13:15.417Z,9.34
2022-12-22T06:14:15.388Z,9.34
2022-12-22T06:15:15.462Z,9.39
2022-12-22T06:16:15.495Z,9.39
2022-12-22T06:17:15.309Z,9.39
2022-12-22T06:18:15.325Z,9.40
2022-12-22T06:19:15.317Z,9.43
2022-12-22T06:20:15.413Z,9.44
2022-12-22T06:21:15.329Z,9.46
2022-12-22T06:22:15.295Z,9.48
2022-12-22T06:23:15.238Z,9.50
2022-12-22T06:24:15.256Z,9.50
2022-12-22T06:25:18.586Z,9.50
2022-12-22T06:26:15.362Z,9.51
2022-12-22T06:27:15.210Z,9.55
2022-12-22T06:28:15.183Z,9.54
2022-12-22T06:29:15.156Z,9.54
2022-12-22T06:30:15.203Z,9.51
2022-12-22T06:31:15.222Z,9.51
2022-12-22T06:32:15.140Z,9.54
2022-12-22T06:33:15.103Z,9.56
2022-12-22T06:34:15.259Z,9.58
2022-12-22T06:35:15.123Z,9.58
2022-12-22T06:36:15.079Z,9.58
2022-12-22T06:37:15.050Z,9.58
2022-12-22T06:38:15.767Z,9.56
2022-12-22T06:39:15.038Z,9.56
2022-12-22T06:40:15.049Z,9.55
2022-12-22T06:41:14.975Z,9.54
2022-12-22T06:42:14.946Z,9.58
2022-12-22T06:43:15.875Z,9.64
2022-12-22T06:44:14.979Z,9.72
2022-12-22T06:45:14.952Z,9.74
2022-12-22T06:46:15.076Z,9.74
2022-12-22T06:47:15.693Z,9.73
2022-12-22T06:48:14.895Z,9.74
2022-12-22T06:49:14.921Z,9.74
2022-12-22T06:50:14.911Z,9.77
2022-12-22T06:51:14.840Z,9.79
2022-12-22T06:52:14.859Z,9.80
2022-12-22T06:53:14.802Z,9.82
2022-12-22T06:54:14.838Z,9.84
2022-12-22T06:55:14.808Z,9.82
2022-12-22T06:56:14.791Z,9.80
2022-12-22T06:57:14.739Z,9.82
2022-12-22T06:58:14.757Z,9.82
2022-12-22T06:59:14.729Z,9.86
2022-12-22T07:00:14.759Z,9.92
2022-12-22T07:01:14.722Z,9.97
2022-12-22T07:02:14.882Z,10.01
2022-12-22T07:03:14.869Z,10.09
2022-12-22T07:04:14.797Z,10.09
2022-12-22T07:05:14.646Z,10.05
2022-12-22T07:06:14.675Z,9.99
2022-12-22T07:07:14.612Z,9.98
2022-12-22T07:08:14.655Z,9.92
2022-12-22T07:09:14.595Z,9.91
2022-12-22T07:10:14.623Z,9.87
2022-12-22T07:11:14.581Z,9.84
2022-12-22T07:12:14.632Z,9.84
2022-12-22T07:13:14.560Z,9.83
2022-12-22T07:14:14.538Z,9.84
2022-12-22T07:15:14.549Z,9.86
2022-12-22T07:16:14.629Z,9.83
2022-12-22T07:17:14.485Z,9.84
2022-12-22T07:18:14.680Z,9.84
2022-12-22T07:19:14.476Z,9.83
2022-12-22T07:20:14.596Z,9.84
2022-12-22T07:21:14.439Z,9.86
2022-12-22T07:22:15.174Z,9.84
2022-12-22T07:23:14.426Z,9.87
2022-12-22T07:24:14.405Z,9.86
2022-12-22T07:25:14.435Z,9.84
2022-12-22T07:26:14.381Z,9.87
2022-12-22T07:27:14.351Z,9.92
2022-12-22T07:28:18.571Z,9.94
2022-12-22T07:29:15.360Z,9.97
2022-12-22T07:30:14.341Z,9.99
2022-12-22T07:31:14.387Z,9.98
2022-12-22T07:32:14.311Z,9.97
2022-12-22T07:33:14.275Z,9.95
2022-12-22T07:34:14.289Z,9.89
2022-12-22T07:35:14.272Z,9.87
2022-12-22T07:36:14.250Z,9.87
2022-12-22T07:37:14.289Z,9.89
2022-12-22T07:38:14.232Z,9.94
2022-12-22T07:39:14.186Z,9.94
2022-12-22T07:40:14.228Z,9.94
2022-12-22T07:41:14.167Z,9.95
2022-12-22T07:42:14.204Z,9.94
2022-12-22T07:43:14.159Z,9.97
2022-12-22T07:44:14.147Z,9.98
2022-12-22T07:45:14.173Z,9.97
2022-12-22T07:46:14.195Z,9.98
2022-12-22T07:47:14.180Z,9.99
2022-12-22T07:48:14.093Z,9.98
2022-12-22T07:49:14.069Z,9.95
2022-12-22T07:50:14.192Z,9.95
2022-12-22T07:51:14.782Z,9.95
2022-12-22T07:52:14.995Z,9.97
2022-12-22T07:53:14.037Z,9.97
2022-12-22T07:54:14.045Z,9.95
2022-12-22T07:55:14.049Z,9.94
2022-12-22T07:56:14.020Z,9.92
2022-12-22T07:57:14.030Z,9.92
2022-12-22T07:58:13.958Z,9.95
2022-12-22T07:59:14.789Z,9.97
2022-12-22T08:00:13.917Z,9.99
2022-12-22T08:01:13.936Z,9.98
2022-12-22T08:02:13.993Z,9.98
2022-12-22T08:03:14.061Z,9.98
2022-12-22T08:04:13.939Z,9.98
2022-12-22T08:05:13.969Z,9.98
2022-12-22T08:06:13.844Z,10.05
2022-12-22T08:07:13.863Z,10.10
2022-12-22T08:08:13.833Z,10.15
2022-12-22T08:09:14.602Z,10.16
2022-12-22T08:10:14.774Z,10.17
2022-12-22T08:11:13.804Z,10.13
2022-12-22T08:12:13.756Z,10.15
2022-12-22T08:13:13.818Z,10.15
2022-12-22T08:14:13.763Z,10.16
2022-12-22T08:15:14.719Z,10.13
2022-12-22T08:16:13.816Z,10.12
2022-12-22T08:17:14.671Z,10.13
2022-12-22T08:18:13.679Z,10.15
2022-12-22T08:19:13.717Z,10.16
2022-12-22T08:20:13.668Z,10.17
2022-12-22T08:21:13.666Z,10.20
2022-12-22T08:22:13.667Z,10.20
2022-12-22T08:23:13.636Z,10.26
2022-12-22T08:24:13.626Z,10.30
2022-12-22T08:25:13.621Z,10.31
2022-12-22T08:26:13.575Z,10.33
2022-12-22T08:27:13.625Z,10.31
2022-12-22T08:28:13.554Z,10.31
2022-12-22T08:29:13.580Z,10.35
2022-12-22T08:30:13.553Z,10.33
2022-12-22T08:31:13.590Z,10.35
2022-12-22T08:32:13.853Z,10.37
2022-12-22T08:33:14.463Z,10.35
2022-12-22T08:34:13.576Z,10.40
2022-12-22T08:35:13.492Z,10.42
2022-12-22T08:36:13.455Z,10.53
2022-12-22T08:37:13.486Z,10.60
2022-12-22T08:38:13.441Z,10.68
2022-12-22T08:39:13.437Z,10.72
2022-12-22T08:40:13.402Z,10.78
2022-12-22T08:41:13.417Z,10.87
2022-12-22T08:42:13.390Z,10.96
2022-12-22T08:43:13.448Z,10.99
2022-12-22T08:44:13.338Z,10.97
2022-12-22T08:45:13.403Z,10.99
2022-12-22T08:46:13.320Z,11.00
2022-12-22T08:47:17.211Z,11.00
2022-12-22T08:48:13.313Z,11.04
2022-12-22T08:49:13.295Z,11.08
2022-12-22T08:50:13.288Z,11.11
2022-12-22T08:51:13.280Z,11.14
2022-12-22T08:52:18.465Z,11.15
2022-12-22T08:53:30.058Z,11.17
2022-12-22T08:54:14.213Z,11.17
2022-12-22T08:55:13.271Z,11.19
2022-12-22T08:56:13.179Z,11.19
2022-12-22T08:57:13.198Z,11.19
2022-12-22T08:58:13.179Z,11.18
2022-12-22T08:59:14.121Z,11.22
2022-12-22T09:00:20.239Z,11.19
2022-12-22T09:01:13.238Z,11.22
2022-12-22T09:02:13.303Z,11.23
2022-12-22T09:03:13.285Z,11.22
2022-12-22T09:04:13.099Z,11.19
2022-12-22T09:05:13.107Z,11.25
2022-12-22T09:06:13.084Z,11.29
2022-12-22T09:07:13.128Z,11.26
2022-12-22T09:08:13.025Z,11.27
2022-12-22T09:09:13.037Z,11.29
2022-12-22T09:10:13.008Z,11.27
2022-12-22T09:11:13.033Z,11.27
2022-12-22T09:12:13.004Z,11.26
2022-12-22T09:13:13.011Z,11.29
2022-12-22T09:14:12.972Z,11.27
2022-12-22T09:15:13.078Z,11.30
2022-12-22T09:16:13.023Z,11.30
2022-12-22T09:17:12.989Z,11.35
2022-12-22T09:18:12.908Z,11.32
2022-12-22T09:19:12.921Z,11.37
2022-12-22T09:20:12.918Z,11.44
2022-12-22T09:21:12.883Z,11.43
2022-12-22T09:22:12.840Z,11.45
2022-12-22T09:23:12.847Z,11.48
2022-12-22T09:24:12.820Z,11.47
2022-12-22T09:25:12.838Z,11.50
2022-12-22T09:26:12.827Z,11.51
2022-12-22T09:27:12.833Z,11.51
2022-12-22T09:28:12.757Z,11.54
2022-12-22T09:29:12.805Z,11.59
2022-12-22T09:30:12.785Z,11.60
2022-12-22T09:31:12.815Z,11.63
2022-12-22T09:32:12.774Z,11.63
2022-12-22T09:33:12.810Z,11.66
2022-12-22T09:34:17.727Z,11.68
2022-12-22T09:35:13.732Z,11.68
2022-12-22T09:36:12.718Z,11.73
2022-12-22T09:37:12.789Z,11.81
2022-12-22T09:38:12.640Z,11.87
2022-12-22T09:39:12.670Z,11.88
2022-12-22T09:40:12.613Z,11.84
2022-12-22T09:41:12.615Z,11.81
2022-12-22T09:42:12.632Z,11.78
2022-12-22T09:43:12.619Z,11.78
2022-12-22T09:44:12.634Z,11.81
2022-12-22T09:45:17.032Z,11.83
2022-12-22T09:46:12.625Z,11.81
2022-12-22T09:47:12.580Z,11.75
2022-12-22T09:48:12.555Z,11.69
2022-12-22T09:49:12.551Z,11.66
2022-12-22T09:50:12.478Z,11.60
2022-12-22T09:51:12.525Z,11.54
2022-12-22T09:52:12.457Z,11.50
2022-12-22T09:53:12.466Z,11.43
2022-12-22T09:54:12.493Z,11.36
2022-12-22T09:55:12.469Z,11.32
2022-12-22T09:56:12.422Z,11.29
2022-12-22T09:57:12.442Z,11.26
2022-12-22T09:58:12.559Z,11.26
2022-12-22T09:59:12.396Z,11.27
2022-12-22T10:00:12.502Z,11.26
2022-12-22T10:01:12.411Z,11.25
2022-12-22T10:02:12.378Z,11.22
2022-12-22T10:03:12.431Z,11.18
2022-12-22T10:04:12.314Z,11.18
2022-12-22T10:05:12.344Z,11.15
2022-12-22T10:06:12.277Z,11.15
2022-12-22T10:07:12.273Z,11.15
2022-12-22T10:08:12.259Z,11.17
2022-12-22T10:09:43.940Z,11.17
2022-12-22T10:10:13.225Z,11.22
2022-12-22T10:11:12.238Z,11.25
2022-12-22T10:12:12.207Z,11.26
2022-12-22T10:13:12.256Z,11.23
2022-12-22T10:14:12.175Z,11.25
2022-12-22T10:15:16.892Z,11.26
2022-12-22T10:16:13.276Z,11.26
2022-12-22T10:17:12.322Z,11.29
2022-12-22T10:18:12.187Z,11.27
2022-12-22T10:19:12.118Z,11.27
2022-12-22T10:20:12.206Z,11.33
2022-12-22T10:21:12.113Z,11.33
2022-12-22T10:22:12.085Z,11.35
2022-12-22T10:23:12.087Z,11.37
2022-12-22T10:24:12.050Z,11.37
2022-12-22T10:25:12.082Z,11.44
2022-12-22T10:26:29.701Z,11.45
2022-12-22T10:27:13.034Z,11.52
2022-12-22T10:28:11.987Z,11.60
2022-12-22T10:29:12.009Z,11.72
2022-12-22T10:30:11.985Z,11.80
2022-12-22T10:31:12.009Z,11.84
2022-12-22T10:32:12.028Z,11.90
2022-12-22T10:33:11.967Z,12.00
2022-12-22T10:34:11.985Z,12.04
2022-12-22T10:35:11.917Z,12.10
2022-12-22T10:36:11.951Z,12.13
2022-12-22T10:37:11.911Z,12.22
2022-12-22T10:38:21.136Z,12.24
2022-12-22T10:39:12.920Z,12.28
2022-12-22T10:40:11.865Z,12.29
2022-12-22T10:41:11.847Z,12.31
2022-12-22T10:42:11.880Z,12.31
2022-12-22T10:43:11.808Z,12.32
2022-12-22T10:44:11.813Z,12.32
2022-12-22T10:45:11.807Z,12.31
2022-12-22T10:46:11.832Z,12.28
2022-12-22T10:47:17.190Z,12.27
2022-12-22T10:48:12.759Z,12.22
2022-12-22T10:49:11.750Z,12.21
2022-12-22T10:50:11.698Z,12.17
2022-12-22T10:51:11.726Z,12.13
2022-12-22T10:52:11.706Z,12.12
2022-12-22T10:53:11.677Z,12.10
2022-12-22T10:54:11.655Z,12.09
2022-12-22T10:55:11.679Z,12.09
2022-12-22T10:56:11.625Z,12.09
2022-12-22T10:57:11.647Z,12.09
2022-12-22T10:58:11.615Z,12.09
2022-12-22T10:59:11.612Z,12.06
2022-12-22T11:00:11.575Z,12.07
2022-12-22T11:01:11.672Z,12.07
2022-12-22T11:02:11.777Z,12.13
2022-12-22T11:03:11.774Z,12.24
2022-12-22T11:04:11.608Z,12.28
2022-12-22T11:05:11.557Z,12.35
2022-12-22T11:06:11.490Z,12.39
2022-12-22T11:07:11.490Z,12.43
2022-12-22T11:08:11.457Z,12.46
2022-12-22T11:09:32.708Z,12.45
2022-12-22T11:10:12.471Z,12.47
2022-12-22T11:11:11.482Z,12.49
2022-12-22T11:12:11.413Z,12.53
2022-12-22T11:13:11.431Z,12.47
2022-12-22T11:14:11.396Z,12.43
2022-12-22T11:15:11.404Z,12.42
2022-12-22T11:16:11.424Z,12.42
2022-12-22T11:17:11.446Z,12.43
2022-12-22T11:18:11.329Z,12.40
2022-12-22T11:19:11.352Z,12.40
2022-12-22T11:20:11.303Z,12.40
2022-12-22T11:21:11.353Z,12.43
2022-12-22T11:22:11.281Z,12.47
2022-12-22T11:23:11.293Z,12.50
2022-12-22T11:24:11.254Z,12.49
2022-12-22T11:25:11.287Z,12.49
2022-12-22T11:26:11.306Z,12.50
2022-12-22T11:27:11.230Z,12.54
2022-12-22T11:28:11.219Z,12.50
2022-12-22T11:29:11.213Z,12.50
2022-12-22T11:30:11.199Z,12.46
2022-12-22T11:31:11.314Z,12.42
2022-12-22T11:32:11.202Z,12.45
2022-12-22T11:33:11.157Z,12.46
2022-12-22T11:34:15.858Z,12.47
2022-12-22T11:35:12.153Z,12.54
2022-12-22T11:36:11.105Z,12.58
2022-12-22T11:37:11.113Z,12.61
2022-12-22T11:38:11.092Z,12.64
2022-12-22T11:39:11.104Z,12.60
2022-12-22T11:40:11.063Z,12.57
2022-12-22T11:41:11.073Z,12.57
2022-12-22T11:42:11.032Z,12.53
2022-12-22T11:43:11.043Z,12.43
2022-12-22T11:44:10.997Z,12.36
2022-12-22T11:45:11.078Z,12.31
2022-12-22T11:46:11.030Z,12.29
2022-12-22T11:47:10.990Z,12.25
2022-12-22T11:48:10.959Z,12.25
2022-12-22T11:49:11.003Z,12.25
2022-12-22T11:51:02.206Z,12.25
2022-12-22T11:51:12.397Z,12.29
2022-12-22T11:52:10.915Z,12.28
2022-12-22T11:53:10.915Z,12.28
2022-12-22T11:54:11.628Z,12.29
2022-12-22T11:55:10.888Z,12.28
2022-12-22T11:56:10.892Z,12.31
2022-12-22T11:57:10.904Z,12.29
2022-12-22T11:58:10.893Z,12.28
2022-12-22T11:59:10.903Z,12.21
2022-12-22T12:00:10.810Z,12.18
2022-12-22T12:01:17.910Z,12.17
2022-12-22T12:02:11.957Z,12.10
2022-12-22T12:03:10.877Z,12.09
2022-12-22T12:04:10.785Z,12.07
2022-12-22T12:05:10.754Z,12.07
2022-12-22T12:06:10.772Z,12.06
2022-12-22T12:07:10.804Z,12.06
2022-12-22T12:08:10.761Z,12.09
2022-12-22T12:09:10.671Z,12.12
2022-12-22T12:10:10.870Z,12.12
2022-12-22T12:11:10.710Z,12.13
2022-12-22T12:12:10.721Z,12.13
2022-12-22T12:13:10.652Z,12.18
2022-12-22T12:14:10.691Z,12.18
2022-12-22T12:15:10.655Z,12.17
2022-12-22T12:16:10.650Z,12.18
2022-12-22T12:17:10.632Z,12.20
2022-12-22T12:18:10.678Z,12.20
2022-12-22T12:19:10.570Z,12.20
2022-12-22T12:20:10.616Z,12.20
2022-12-22T12:21:10.595Z,12.17
2022-12-22T12:22:10.535Z,12.18
2022-12-22T12:23:10.597Z,12.20
2022-12-22T12:24:10.585Z,12.21
2022-12-22T12:25:10.471Z,12.25
2022-12-22T12:26:10.472Z,12.28
2022-12-22T12:27:10.432Z,12.35
2022-12-22T12:28:10.473Z,12.35
2022-12-22T12:29:10.457Z,12.45
2022-12-22T12:31:11.423Z,12.60
2022-12-22T12:32:10.401Z,12.65
2022-12-22T12:33:10.459Z,12.73
2022-12-22T12:34:10.403Z,12.80
2022-12-22T12:35:10.359Z,12.87
2022-12-22T12:36:10.433Z,12.91
2022-12-22T12:37:10.386Z,12.97
2022-12-22T12:38:25.739Z,13.01
2022-12-22T12:39:11.372Z,13.05
2022-12-22T12:40:10.396Z,13.12
2022-12-22T12:41:10.299Z,13.16
2022-12-22T12:42:10.269Z,13.18
2022-12-22T12:43:16.078Z,13.16
2022-12-22T12:44:11.293Z,13.18
2022-12-22T12:45:10.249Z,13.19
2022-12-22T12:46:10.349Z,13.18
2022-12-22T12:47:10.333Z,13.22
2022-12-22T12:48:10.193Z,13.25
2022-12-22T12:49:10.187Z,13.23
2022-12-22T12:50:10.262Z,13.23
2022-12-22T12:51:10.121Z,13.22
2022-12-22T12:52:10.172Z,13.20
2022-12-22T12:53:10.116Z,13.18
2022-12-22T12:54:10.164Z,13.12
2022-12-22T12:55:14.329Z,13.09
2022-12-22T12:56:11.085Z,13.09
2022-12-22T12:57:10.169Z,13.09
2022-12-22T12:58:10.124Z,13.08
2022-12-22T12:59:10.129Z,13.09
2022-12-22T13:00:10.049Z,13.05
2022-12-22T13:01:10.046Z,13.08
2022-12-22T13:02:10.136Z,13.05
2022-12-22T13:03:19.987Z,13.00
2022-12-22T13:04:11.244Z,13.00
2022-12-22T13:05:09.946Z,12.98
2022-12-22T13:06:09.957Z,12.94
2022-12-22T13:07:09.945Z,12.94
2022-12-22T13:08:09.933Z,12.85
2022-12-22T13:09:48.375Z,12.76